sensor_id;sensor_type;location;lat;lon;timestamp;temperature;humidity
33903;DHT22;20194;50.950;5.346;2023-03-11T00:00:24;2.90;30.60
33903;DHT22;20194;50.950;5.346;2023-03-11T00:02:52;2.90;29.30
33903;DHT22;20194;50.950;5.346;2023-03-11T00:05:23;2.80;28.30
33903;DHT22;20194;50.950;5.346;2023-03-11T00:07:50;2.80;30.00
33903;DHT22;20194;50.950;5.346;2023-03-11T00:10:19;2.80;30.20
33903;DHT22;20194;50.950;5.346;2023-03-11T00:12:45;2.70;29.10
33903;DHT22;20194;50.950;5.346;2023-03-11T00:15:11;2.80;29.20
33903;DHT22;20194;50.950;5.346;2023-03-11T00:17:37;2.90;28.40
33903;DHT22;20194;50.950;5.346;2023-03-11T00:20:04;2.80;27.60
33903;DHT22;20194;50.950;5.346;2023-03-11T00:22:31;2.80;30.90
33903;DHT22;20194;50.950;5.346;2023-03-11T00:24:57;2.80;29.20
33903;DHT22;20194;50.950;5.346;2023-03-11T00:27:23;2.70;30.80
33903;DHT22;20194;50.950;5.346;2023-03-11T00:29:50;2.90;30.60
33903;DHT22;20194;50.950;5.346;2023-03-11T00:32:15;2.60;30.00
33903;DHT22;20194;50.950;5.346;2023-03-11T00:34:41;2.50;35.00
33903;DHT22;20194;50.950;5.346;2023-03-11T00:37:07;2.60;34.70
33903;DHT22;20194;50.950;5.346;2023-03-11T00:39:33;2.70;33.60
33903;DHT22;20194;50.950;5.346;2023-03-11T00:41:59;2.80;33.60
33903;DHT22;20194;50.950;5.346;2023-03-11T00:44:24;2.70;31.90
33903;DHT22;20194;50.950;5.346;2023-03-11T00:46:50;2.70;32.00
33903;DHT22;20194;50.950;5.346;2023-03-11T00:49:16;2.70;35.50
33903;DHT22;20194;50.950;5.346;2023-03-11T00:51:42;2.80;35.20
33903;DHT22;20194;50.950;5.346;2023-03-11T00:54:07;2.90;34.60
33903;DHT22;20194;50.950;5.346;2023-03-11T00:56:33;2.90;35.90
33903;DHT22;20194;50.950;5.346;2023-03-11T00:58:59;2.90;36.00
33903;DHT22;20194;50.950;5.346;2023-03-11T01:01:24;2.90;35.50
33903;DHT22;20194;50.950;5.346;2023-03-11T01:03:50;3.00;34.80
33903;DHT22;20194;50.950;5.346;2023-03-11T01:06:16;2.80;35.60
33903;DHT22;20194;50.950;5.346;2023-03-11T01:08:41;2.90;37.90
33903;DHT22;20194;50.950;5.346;2023-03-11T01:11:07;2.90;36.90
33903;DHT22;20194;50.950;5.346;2023-03-11T01:13:34;3.00;36.40
33903;DHT22;20194;50.950;5.346;2023-03-11T01:16:00;2.80;36.10
33903;DHT22;20194;50.950;5.346;2023-03-11T01:18:26;2.80;38.30
33903;DHT22;20194;50.950;5.346;2023-03-11T01:20:52;2.90;39.10
33903;DHT22;20194;50.950;5.346;2023-03-11T01:23:19;3.00;37.90
33903;DHT22;20194;50.950;5.346;2023-03-11T01:25:45;3.00;36.20
33903;DHT22;20194;50.950;5.346;2023-03-11T01:28:11;3.00;35.80
33903;DHT22;20194;50.950;5.346;2023-03-11T01:30:39;3.10;38.60
33903;DHT22;20194;50.950;5.346;2023-03-11T01:33:06;3.10;36.90
33903;DHT22;20194;50.950;5.346;2023-03-11T01:35:32;3.20;37.80
33903;DHT22;20194;50.950;5.346;2023-03-11T01:37:58;3.20;36.10
33903;DHT22;20194;50.950;5.346;2023-03-11T01:40:33;3.10;38.40
33903;DHT22;20194;50.950;5.346;2023-03-11T01:43:01;3.00;39.40
33903;DHT22;20194;50.950;5.346;2023-03-11T01:48:14;3.20;39.50
33903;DHT22;20194;50.950;5.346;2023-03-11T01:50:43;3.20;38.60
33903;DHT22;20194;50.950;5.346;2023-03-11T01:53:10;3.20;37.70
33903;DHT22;20194;50.950;5.346;2023-03-11T01:55:36;3.20;39.00
33903;DHT22;20194;50.950;5.346;2023-03-11T01:58:05;3.00;38.40
33903;DHT22;20194;50.950;5.346;2023-03-11T02:00:33;2.90;41.70
33903;DHT22;20194;50.950;5.346;2023-03-11T02:03:00;2.90;41.10
33903;DHT22;20194;50.950;5.346;2023-03-11T02:05:27;3.00;41.50
33903;DHT22;20194;50.950;5.346;2023-03-11T02:07:54;3.10;40.80
33903;DHT22;20194;50.950;5.346;2023-03-11T02:10:20;3.10;38.50
33903;DHT22;20194;50.950;5.346;2023-03-11T02:12:48;3.10;38.70
33903;DHT22;20194;50.950;5.346;2023-03-11T02:15:15;3.10;38.60
33903;DHT22;20194;50.950;5.346;2023-03-11T02:17:41;3.10;36.90
33903;DHT22;20194;50.950;5.346;2023-03-11T02:23:00;3.30;35.50
33903;DHT22;20194;50.950;5.346;2023-03-11T02:25:36;3.40;33.50
33903;DHT22;20194;50.950;5.346;2023-03-11T02:28:08;3.40;35.30
33903;DHT22;20194;50.950;5.346;2023-03-11T02:30:36;3.40;33.20
33903;DHT22;20194;50.950;5.346;2023-03-11T02:33:04;3.50;31.30
33903;DHT22;20194;50.950;5.346;2023-03-11T02:35:30;3.50;31.20
33903;DHT22;20194;50.950;5.346;2023-03-11T02:37:56;3.40;29.80
33903;DHT22;20194;50.950;5.346;2023-03-11T02:43:05;3.30;31.60
33903;DHT22;20194;50.950;5.346;2023-03-11T02:45:31;3.10;31.50
33903;DHT22;20194;50.950;5.346;2023-03-11T02:47:58;3.00;35.50
33903;DHT22;20194;50.950;5.346;2023-03-11T02:50:25;3.10;35.00
33903;DHT22;20194;50.950;5.346;2023-03-11T02:52:52;3.20;34.50
33903;DHT22;20194;50.950;5.346;2023-03-11T02:55:19;3.30;31.30
33903;DHT22;20194;50.950;5.346;2023-03-11T02:57:46;3.20;32.80
33903;DHT22;20194;50.950;5.346;2023-03-11T03:00:13;3.20;33.70
33903;DHT22;20194;50.950;5.346;2023-03-11T03:02:40;3.20;34.60
33903;DHT22;20194;50.950;5.346;2023-03-11T03:05:06;3.20;32.60
33903;DHT22;20194;50.950;5.346;2023-03-11T03:07:32;3.00;35.40
33903;DHT22;20194;50.950;5.346;2023-03-11T03:09:58;3.10;35.80
33903;DHT22;20194;50.950;5.346;2023-03-11T03:12:24;3.00;36.00
33903;DHT22;20194;50.950;5.346;2023-03-11T03:14:50;2.90;38.80
33903;DHT22;20194;50.950;5.346;2023-03-11T03:17:16;2.90;37.30
33903;DHT22;20194;50.950;5.346;2023-03-11T03:19:42;3.00;37.80
33903;DHT22;20194;50.950;5.346;2023-03-11T03:22:07;3.00;38.20
33903;DHT22;20194;50.950;5.346;2023-03-11T03:24:33;3.10;37.50
33903;DHT22;20194;50.950;5.346;2023-03-11T03:26:59;3.20;37.40
33903;DHT22;20194;50.950;5.346;2023-03-11T03:29:25;3.10;35.70
33903;DHT22;20194;50.950;5.346;2023-03-11T03:31:50;3.00;35.40
33903;DHT22;20194;50.950;5.346;2023-03-11T03:34:16;2.90;37.10
33903;DHT22;20194;50.950;5.346;2023-03-11T03:36:42;3.00;37.50
33903;DHT22;20194;50.950;5.346;2023-03-11T03:39:07;2.90;36.40
33903;DHT22;20194;50.950;5.346;2023-03-11T03:41:33;3.00;40.30
33903;DHT22;20194;50.950;5.346;2023-03-11T03:44:01;3.00;38.70
33903;DHT22;20194;50.950;5.346;2023-03-11T03:46:27;3.10;38.90
33903;DHT22;20194;50.950;5.346;2023-03-11T03:48:53;3.00;37.70
33903;DHT22;20194;50.950;5.346;2023-03-11T03:51:19;3.00;39.60
33903;DHT22;20194;50.950;5.346;2023-03-11T03:53:45;3.10;37.70
33903;DHT22;20194;50.950;5.346;2023-03-11T03:56:13;3.20;37.90
33903;DHT22;20194;50.950;5.346;2023-03-11T03:58:40;3.20;38.70
33903;DHT22;20194;50.950;5.346;2023-03-11T04:01:06;3.30;36.20
33903;DHT22;20194;50.950;5.346;2023-03-11T04:03:33;3.40;33.30
33903;DHT22;20194;50.950;5.346;2023-03-11T04:06:10;3.50;30.80
33903;DHT22;20194;50.950;5.346;2023-03-11T04:08:36;3.50;30.40
33903;DHT22;20194;50.950;5.346;2023-03-11T04:11:02;3.50;28.90
33903;DHT22;20194;50.950;5.346;2023-03-11T04:13:28;3.50;29.50
33903;DHT22;20194;50.950;5.346;2023-03-11T04:15:53;3.50;28.50
33903;DHT22;20194;50.950;5.346;2023-03-11T04:18:19;3.50;27.50
33903;DHT22;20194;50.950;5.346;2023-03-11T04:20:47;3.50;26.90
33903;DHT22;20194;50.950;5.346;2023-03-11T04:23:13;3.60;27.30
33903;DHT22;20194;50.950;5.346;2023-03-11T04:25:38;3.60;26.60
33903;DHT22;20194;50.950;5.346;2023-03-11T04:28:05;3.60;26.20
33903;DHT22;20194;50.950;5.346;2023-03-11T04:30:31;3.60;25.40
33903;DHT22;20194;50.950;5.346;2023-03-11T04:32:56;3.60;25.20
33903;DHT22;20194;50.950;5.346;2023-03-11T04:35:22;3.50;25.40
33903;DHT22;20194;50.950;5.346;2023-03-11T04:37:48;3.50;25.50
33903;DHT22;20194;50.950;5.346;2023-03-11T04:40:14;3.40;25.40
33903;DHT22;20194;50.950;5.346;2023-03-11T04:42:39;3.50;24.00
33903;DHT22;20194;50.950;5.346;2023-03-11T04:45:06;3.40;24.60
33903;DHT22;20194;50.950;5.346;2023-03-11T04:47:32;3.40;24.40
33903;DHT22;20194;50.950;5.346;2023-03-11T04:49:57;3.40;23.80
33903;DHT22;20194;50.950;5.346;2023-03-11T04:52:23;3.40;23.30
33903;DHT22;20194;50.950;5.346;2023-03-11T04:54:49;3.40;22.80
33903;DHT22;20194;50.950;5.346;2023-03-11T04:57:14;3.30;22.90
33903;DHT22;20194;50.950;5.346;2023-03-11T04:59:40;3.30;22.70
33903;DHT22;20194;50.950;5.346;2023-03-11T05:02:06;3.20;23.40
33903;DHT22;20194;50.950;5.346;2023-03-11T05:04:31;3.20;24.80
33903;DHT22;20194;50.950;5.346;2023-03-11T05:06:57;3.20;24.20
33903;DHT22;20194;50.950;5.346;2023-03-11T05:09:24;3.30;22.60
33903;DHT22;20194;50.950;5.346;2023-03-11T05:11:49;3.20;23.00
33903;DHT22;20194;50.950;5.346;2023-03-11T05:14:15;3.20;22.90
33903;DHT22;20194;50.950;5.346;2023-03-11T05:16:41;3.30;23.00
33903;DHT22;20194;50.950;5.346;2023-03-11T05:19:07;3.20;23.40
33903;DHT22;20194;50.950;5.346;2023-03-11T05:21:52;3.10;23.50
33903;DHT22;20194;50.950;5.346;2023-03-11T05:24:18;3.10;22.60
33903;DHT22;20194;50.950;5.346;2023-03-11T05:26:44;3.10;22.80
33903;DHT22;20194;50.950;5.346;2023-03-11T05:29:10;3.10;22.60
33903;DHT22;20194;50.950;5.346;2023-03-11T05:31:35;3.00;22.30
33903;DHT22;20194;50.950;5.346;2023-03-11T05:34:01;3.00;23.50
33903;DHT22;20194;50.950;5.346;2023-03-11T05:36:27;3.00;23.30
33903;DHT22;20194;50.950;5.346;2023-03-11T05:38:53;3.00;23.70
33903;DHT22;20194;50.950;5.346;2023-03-11T05:41:19;3.00;23.30
33903;DHT22;20194;50.950;5.346;2023-03-11T05:43:45;3.00;23.20
33903;DHT22;20194;50.950;5.346;2023-03-11T05:46:11;2.90;22.90
33903;DHT22;20194;50.950;5.346;2023-03-11T05:48:37;3.00;23.40
33903;DHT22;20194;50.950;5.346;2023-03-11T05:51:07;2.90;22.90
33903;DHT22;20194;50.950;5.346;2023-03-11T05:53:33;2.90;24.30
33903;DHT22;20194;50.950;5.346;2023-03-11T05:55:59;2.90;23.30
33903;DHT22;20194;50.950;5.346;2023-03-11T05:58:30;2.90;23.70
33903;DHT22;20194;50.950;5.346;2023-03-11T06:00:56;2.90;23.80
33903;DHT22;20194;50.950;5.346;2023-03-11T06:03:23;2.90;23.50
33903;DHT22;20194;50.950;5.346;2023-03-11T06:05:49;2.90;23.50
33903;DHT22;20194;50.950;5.346;2023-03-11T06:08:16;2.90;22.80
33903;DHT22;20194;50.950;5.346;2023-03-11T06:10:42;2.90;23.20
33903;DHT22;20194;50.950;5.346;2023-03-11T06:13:08;2.90;23.20
33903;DHT22;20194;50.950;5.346;2023-03-11T06:15:34;2.80;22.70
33903;DHT22;20194;50.950;5.346;2023-03-11T06:18:01;2.80;23.20
33903;DHT22;20194;50.950;5.346;2023-03-11T06:20:27;2.80;23.10
33903;DHT22;20194;50.950;5.346;2023-03-11T06:22:53;2.90;24.60
33903;DHT22;20194;50.950;5.346;2023-03-11T06:25:18;2.90;24.70
33903;DHT22;20194;50.950;5.346;2023-03-11T06:27:49;2.90;25.30
33903;DHT22;20194;50.950;5.346;2023-03-11T06:30:19;2.90;25.10
33903;DHT22;20194;50.950;5.346;2023-03-11T06:32:45;2.90;25.20
33903;DHT22;20194;50.950;5.346;2023-03-11T06:35:12;2.90;25.90
33903;DHT22;20194;50.950;5.346;2023-03-11T06:37:38;3.00;26.40
33903;DHT22;20194;50.950;5.346;2023-03-11T06:40:06;2.90;25.90
33903;DHT22;20194;50.950;5.346;2023-03-11T06:42:32;3.00;26.80
33903;DHT22;20194;50.950;5.346;2023-03-11T06:44:59;3.00;26.60
33903;DHT22;20194;50.950;5.346;2023-03-11T06:47:25;3.00;25.90
33903;DHT22;20194;50.950;5.346;2023-03-11T06:49:52;3.00;26.40
33903;DHT22;20194;50.950;5.346;2023-03-11T06:52:18;3.00;26.70
33903;DHT22;20194;50.950;5.346;2023-03-11T06:54:44;3.10;26.40
33903;DHT22;20194;50.950;5.346;2023-03-11T06:57:10;3.00;26.90
33903;DHT22;20194;50.950;5.346;2023-03-11T06:59:36;3.10;27.00
33903;DHT22;20194;50.950;5.346;2023-03-11T07:02:03;3.10;26.80
33903;DHT22;20194;50.950;5.346;2023-03-11T07:04:30;3.10;27.10
33903;DHT22;20194;50.950;5.346;2023-03-11T07:06:56;3.20;27.80
33903;DHT22;20194;50.950;5.346;2023-03-11T07:09:23;3.10;27.00
33903;DHT22;20194;50.950;5.346;2023-03-11T07:11:50;3.10;30.30
33903;DHT22;20194;50.950;5.346;2023-03-11T07:14:16;3.20;31.40
33903;DHT22;20194;50.950;5.346;2023-03-11T07:16:43;3.20;30.20
33903;DHT22;20194;50.950;5.346;2023-03-11T07:19:09;3.40;29.60
33903;DHT22;20194;50.950;5.346;2023-03-11T07:21:35;3.40;28.90
33903;DHT22;20194;50.950;5.346;2023-03-11T07:24:01;3.50;29.20
33903;DHT22;20194;50.950;5.346;2023-03-11T07:26:29;3.60;28.20
33903;DHT22;20194;50.950;5.346;2023-03-11T07:28:56;3.60;27.50
33903;DHT22;20194;50.950;5.346;2023-03-11T07:31:26;3.40;28.40
33903;DHT22;20194;50.950;5.346;2023-03-11T07:33:53;3.30;31.00
33903;DHT22;20194;50.950;5.346;2023-03-11T07:36:22;3.30;31.00
33903;DHT22;20194;50.950;5.346;2023-03-11T07:38:52;3.30;35.70
33903;DHT22;20194;50.950;5.346;2023-03-11T07:41:18;3.40;34.00
33903;DHT22;20194;50.950;5.346;2023-03-11T07:43:44;3.30;33.60
33903;DHT22;20194;50.950;5.346;2023-03-11T07:46:15;3.40;35.90
33903;DHT22;20194;50.950;5.346;2023-03-11T07:48:43;3.50;36.90
33903;DHT22;20194;50.950;5.346;2023-03-11T07:51:12;3.70;33.90
33903;DHT22;20194;50.950;5.346;2023-03-11T07:53:39;4.00;31.70
33903;DHT22;20194;50.950;5.346;2023-03-11T07:56:06;3.80;28.50
33903;DHT22;20194;50.950;5.346;2023-03-11T07:58:32;3.80;32.40
33903;DHT22;20194;50.950;5.346;2023-03-11T08:01:09;3.90;30.90
33903;DHT22;20194;50.950;5.346;2023-03-11T08:03:35;4.30;31.70
33903;DHT22;20194;50.950;5.346;2023-03-11T08:06:01;4.30;27.90
33903;DHT22;20194;50.950;5.346;2023-03-11T08:08:27;4.50;26.00
33903;DHT22;20194;50.950;5.346;2023-03-11T08:10:53;4.60;26.40
33903;DHT22;20194;50.950;5.346;2023-03-11T08:13:19;4.70;23.70
33903;DHT22;20194;50.950;5.346;2023-03-11T08:15:45;4.70;23.60
33903;DHT22;20194;50.950;5.346;2023-03-11T08:18:11;4.90;23.10
33903;DHT22;20194;50.950;5.346;2023-03-11T08:20:37;4.90;22.80
33903;DHT22;20194;50.950;5.346;2023-03-11T08:23:03;4.80;21.70
33903;DHT22;20194;50.950;5.346;2023-03-11T08:25:29;4.80;25.70
33903;DHT22;20194;50.950;5.346;2023-03-11T08:27:55;4.90;24.50
33903;DHT22;20194;50.950;5.346;2023-03-11T08:30:21;5.00;22.50
33903;DHT22;20194;50.950;5.346;2023-03-11T08:32:48;5.20;20.80
33903;DHT22;20194;50.950;5.346;2023-03-11T08:35:14;5.30;18.70
33903;DHT22;20194;50.950;5.346;2023-03-11T08:37:40;5.30;20.40
33903;DHT22;20194;50.950;5.346;2023-03-11T08:40:06;5.60;19.40
33903;DHT22;20194;50.950;5.346;2023-03-11T08:42:34;5.90;16.80
33903;DHT22;20194;50.950;5.346;2023-03-11T08:45:00;6.20;10.40
33903;DHT22;20194;50.950;5.346;2023-03-11T08:47:26;6.60;3.10
33903;DHT22;20194;50.950;5.346;2023-03-11T08:49:52;6.60;1.00
33903;DHT22;20194;50.950;5.346;2023-03-11T08:52:17;6.80;1.00
33903;DHT22;20194;50.950;5.346;2023-03-11T08:54:43;6.40;1.40
33903;DHT22;20194;50.950;5.346;2023-03-11T08:57:09;6.20;6.30
33903;DHT22;20194;50.950;5.346;2023-03-11T08:59:35;6.20;2.60
33903;DHT22;20194;50.950;5.346;2023-03-11T09:02:00;6.40;1.00
33903;DHT22;20194;50.950;5.346;2023-03-11T09:04:26;6.40;1.00
33903;DHT22;20194;50.950;5.346;2023-03-11T09:06:52;6.20;1.00
33903;DHT22;20194;50.950;5.346;2023-03-11T09:09:18;6.40;3.90
33903;DHT22;20194;50.950;5.346;2023-03-11T09:11:45;6.70;1.00
33903;DHT22;20194;50.950;5.346;2023-03-11T09:14:11;6.60;1.00
33903;DHT22;20194;50.950;5.346;2023-03-11T09:16:37;6.70;1.00
33903;DHT22;20194;50.950;5.346;2023-03-11T09:19:03;7.30;1.00
33903;DHT22;20194;50.950;5.346;2023-03-11T09:21:32;7.80;1.00
33903;DHT22;20194;50.950;5.346;2023-03-11T09:23:59;7.70;1.00
33903;DHT22;20194;50.950;5.346;2023-03-11T09:26:25;7.30;1.00
33903;DHT22;20194;50.950;5.346;2023-03-11T09:28:51;7.20;1.00
33903;DHT22;20194;50.950;5.346;2023-03-11T09:31:18;7.10;1.00
33903;DHT22;20194;50.950;5.346;2023-03-11T09:33:44;7.50;1.00
33903;DHT22;20194;50.950;5.346;2023-03-11T09:36:15;7.60;1.00
33903;DHT22;20194;50.950;5.346;2023-03-11T09:38:42;7.30;1.00
33903;DHT22;20194;50.950;5.346;2023-03-11T09:43:50;7.40;1.00
33903;DHT22;20194;50.950;5.346;2023-03-11T09:52:23;8.90;1.00
33903;DHT22;20194;50.950;5.346;2023-03-11T09:54:52;8.80;99.90
33903;DHT22;20194;50.950;5.346;2023-03-11T09:57:24;7.90;99.90
33903;DHT22;20194;50.950;5.346;2023-03-11T09:59:51;8.20;99.90
33903;DHT22;20194;50.950;5.346;2023-03-11T10:02:19;8.70;1.00
33903;DHT22;20194;50.950;5.346;2023-03-11T10:07:20;8.80;1.00
33903;DHT22;20194;50.950;5.346;2023-03-11T10:09:54;9.20;99.90
33903;DHT22;20194;50.950;5.346;2023-03-11T10:23:30;8.40;1.00
33903;DHT22;20194;50.950;5.346;2023-03-11T10:28:41;9.20;96.70
33903;DHT22;20194;50.950;5.346;2023-03-11T10:31:19;9.40;1.00
33903;DHT22;20194;50.950;5.346;2023-03-11T10:34:01;9.70;1.00
33903;DHT22;20194;50.950;5.346;2023-03-11T10:36:34;10.00;99.90
33903;DHT22;20194;50.950;5.346;2023-03-11T10:39:03;9.70;99.90
33903;DHT22;20194;50.950;5.346;2023-03-11T10:41:42;9.30;1.00
33903;DHT22;20194;50.950;5.346;2023-03-11T10:44:16;9.40;99.90
33903;DHT22;20194;50.950;5.346;2023-03-11T10:46:43;8.30;1.00
33903;DHT22;20194;50.950;5.346;2023-03-11T10:49:14;8.10;99.90
33903;DHT22;20194;50.950;5.346;2023-03-11T10:51:44;8.40;99.90
33903;DHT22;20194;50.950;5.346;2023-03-11T10:54:29;8.20;99.90
33903;DHT22;20194;50.950;5.346;2023-03-11T10:56:58;8.50;99.90
33903;DHT22;20194;50.950;5.346;2023-03-11T10:59:33;8.90;1.00
33903;DHT22;20194;50.950;5.346;2023-03-11T11:02:01;9.20;1.00
33903;DHT22;20194;50.950;5.346;2023-03-11T11:04:31;9.20;99.90
33903;DHT22;20194;50.950;5.346;2023-03-11T11:07:39;8.90;1.00
33903;DHT22;20194;50.950;5.346;2023-03-11T11:15:29;9.10;1.00
33903;DHT22;20194;50.950;5.346;2023-03-11T11:18:03;8.60;1.00
33903;DHT22;20194;50.950;5.346;2023-03-11T11:20:29;8.00;99.90
33903;DHT22;20194;50.950;5.346;2023-03-11T11:23:00;8.00;1.00
33903;DHT22;20194;50.950;5.346;2023-03-11T11:25:38;8.30;89.60
33903;DHT22;20194;50.950;5.346;2023-03-11T11:28:18;8.70;1.00
33903;DHT22;20194;50.950;5.346;2023-03-11T11:31:01;9.10;1.00
33903;DHT22;20194;50.950;5.346;2023-03-11T11:33:52;9.40;20.60
33903;DHT22;20194;50.950;5.346;2023-03-11T11:36:20;9.90;42.80
33903;DHT22;20194;50.950;5.346;2023-03-11T11:38:51;9.80;1.00
33903;DHT22;20194;50.950;5.346;2023-03-11T11:41:23;9.90;1.00
33903;DHT22;20194;50.950;5.346;2023-03-11T11:43:52;10.00;99.90
33903;DHT22;20194;50.950;5.346;2023-03-11T11:46:24;10.00;99.90
33903;DHT22;20194;50.950;5.346;2023-03-11T11:49:04;10.10;1.00
33903;DHT22;20194;50.950;5.346;2023-03-11T11:54:28;10.30;99.90
33903;DHT22;20194;50.950;5.346;2023-03-11T11:56:56;10.30;10.50
33903;DHT22;20194;50.950;5.346;2023-03-11T11:59:23;10.10;1.00
33903;DHT22;20194;50.950;5.346;2023-03-11T12:02:06;9.70;4.20
33903;DHT22;20194;50.950;5.346;2023-03-11T12:10:17;8.00;99.90
33903;DHT22;20194;50.950;5.346;2023-03-11T12:18:29;8.30;26.80
33903;DHT22;20194;50.950;5.346;2023-03-11T12:20:59;8.60;99.90
33903;DHT22;20194;50.950;5.346;2023-03-11T12:26:21;9.40;1.00
33903;DHT22;20194;50.950;5.346;2023-03-11T12:31:17;8.30;1.00
33903;DHT22;20194;50.950;5.346;2023-03-11T12:33:49;8.20;99.90
33903;DHT22;20194;50.950;5.346;2023-03-11T12:36:28;8.10;1.00
33903;DHT22;20194;50.950;5.346;2023-03-11T12:38:54;8.20;1.00
33903;DHT22;20194;50.950;5.346;2023-03-11T12:41:27;8.60;80.60
33903;DHT22;20194;50.950;5.346;2023-03-11T12:44:01;8.60;99.90
33903;DHT22;20194;50.950;5.346;2023-03-11T12:54:41;8.30;99.90
33903;DHT22;20194;50.950;5.346;2023-03-11T13:08:20;8.60;1.00
33903;DHT22;20194;50.950;5.346;2023-03-11T13:10:52;8.60;99.90
33903;DHT22;20194;50.950;5.346;2023-03-11T13:15:56;8.90;99.90
33903;DHT22;20194;50.950;5.346;2023-03-11T13:20:59;8.90;99.90
33903;DHT22;20194;50.950;5.346;2023-03-11T13:23:33;8.70;99.90
33903;DHT22;20194;50.950;5.346;2023-03-11T13:26:05;9.00;99.90
33903;DHT22;20194;50.950;5.346;2023-03-11T13:28:56;8.80;1.00
33903;DHT22;20194;50.950;5.346;2023-03-11T13:31:46;8.40;99.90
33903;DHT22;20194;50.950;5.346;2023-03-11T13:37:25;8.50;99.90
33903;DHT22;20194;50.950;5.346;2023-03-11T13:42:48;8.80;99.90
33903;DHT22;20194;50.950;5.346;2023-03-11T13:45:35;8.20;1.00
33903;DHT22;20194;50.950;5.346;2023-03-11T13:48:59;8.00;1.00
33903;DHT22;20194;50.950;5.346;2023-03-11T13:51:17;8.40;1.00
33903;DHT22;20194;50.950;5.346;2023-03-11T13:56:57;9.20;1.00
33903;DHT22;20194;50.950;5.346;2023-03-11T13:59:26;9.10;99.90
33903;DHT22;20194;50.950;5.346;2023-03-11T14:01:55;9.10;18.30
33903;DHT22;20194;50.950;5.346;2023-03-11T14:04:41;8.60;99.90
33903;DHT22;20194;50.950;5.346;2023-03-11T14:07:21;8.40;99.90
33903;DHT22;20194;50.950;5.346;2023-03-11T14:09:48;8.40;99.90
33903;DHT22;20194;50.950;5.346;2023-03-11T14:12:14;8.50;1.00
33903;DHT22;20194;50.950;5.346;2023-03-11T14:17:38;8.50;99.90
33903;DHT22;20194;50.950;5.346;2023-03-11T14:20:24;8.40;1.00
33903;DHT22;20194;50.950;5.346;2023-03-11T14:22:53;8.40;1.00
33903;DHT22;20194;50.950;5.346;2023-03-11T14:25:23;8.60;99.90
33903;DHT22;20194;50.950;5.346;2023-03-11T14:27:56;9.00;99.90
33903;DHT22;20194;50.950;5.346;2023-03-11T14:30:26;9.20;99.90
33903;DHT22;20194;50.950;5.346;2023-03-11T14:33:01;9.40;99.90
33903;DHT22;20194;50.950;5.346;2023-03-11T14:35:28;9.40;99.90
33903;DHT22;20194;50.950;5.346;2023-03-11T14:37:55;9.50;99.90
33903;DHT22;20194;50.950;5.346;2023-03-11T14:40:28;9.60;99.90
33903;DHT22;20194;50.950;5.346;2023-03-11T14:42:59;9.50;1.00
33903;DHT22;20194;50.950;5.346;2023-03-11T14:45:29;9.30;99.90
33903;DHT22;20194;50.950;5.346;2023-03-11T14:48:08;9.10;1.00
33903;DHT22;20194;50.950;5.346;2023-03-11T14:50:35;8.70;1.00
33903;DHT22;20194;50.950;5.346;2023-03-11T14:53:23;8.80;99.90
33903;DHT22;20194;50.950;5.346;2023-03-11T14:58:28;9.00;1.00
33903;DHT22;20194;50.950;5.346;2023-03-11T15:01:19;8.80;99.90
33903;DHT22;20194;50.950;5.346;2023-03-11T15:06:19;8.90;1.00
33903;DHT22;20194;50.950;5.346;2023-03-11T15:08:58;9.00;99.90
33903;DHT22;20194;50.950;5.346;2023-03-11T15:11:26;9.20;99.90
33903;DHT22;20194;50.950;5.346;2023-03-11T15:13:54;8.70;17.80
33903;DHT22;20194;50.950;5.346;2023-03-11T15:16:38;8.60;99.90
33903;DHT22;20194;50.950;5.346;2023-03-11T15:21:48;8.50;1.00
33903;DHT22;20194;50.950;5.346;2023-03-11T15:24:21;8.60;99.90
33903;DHT22;20194;50.950;5.346;2023-03-11T15:27:18;8.80;1.00
33903;DHT22;20194;50.950;5.346;2023-03-11T15:29:50;8.70;99.90
33903;DHT22;20194;50.950;5.346;2023-03-11T15:37:33;8.70;99.90
33903;DHT22;20194;50.950;5.346;2023-03-11T15:40:16;8.80;1.00
33903;DHT22;20194;50.950;5.346;2023-03-11T15:42:43;8.60;99.90
33903;DHT22;20194;50.950;5.346;2023-03-11T15:45:16;8.30;1.00
33903;DHT22;20194;50.950;5.346;2023-03-11T15:47:43;8.50;99.90
33903;DHT22;20194;50.950;5.346;2023-03-11T15:50:24;8.80;1.00
33903;DHT22;20194;50.950;5.346;2023-03-11T15:52:54;8.90;99.90
33903;DHT22;20194;50.950;5.346;2023-03-11T15:55:20;8.70;1.00
33903;DHT22;20194;50.950;5.346;2023-03-11T15:57:47;8.60;99.90
33903;DHT22;20194;50.950;5.346;2023-03-11T16:00:21;8.60;22.60
33903;DHT22;20194;50.950;5.346;2023-03-11T16:02:50;8.80;99.90
33903;DHT22;20194;50.950;5.346;2023-03-11T16:05:21;8.50;1.00
33903;DHT22;20194;50.950;5.346;2023-03-11T16:07:48;8.80;99.90
33903;DHT22;20194;50.950;5.346;2023-03-11T16:10:17;9.00;99.90
33903;DHT22;20194;50.950;5.346;2023-03-11T16:12:43;9.00;99.90
33903;DHT22;20194;50.950;5.346;2023-03-11T16:15:27;8.70;99.90
33903;DHT22;20194;50.950;5.346;2023-03-11T16:17:55;8.70;99.90
33903;DHT22;20194;50.950;5.346;2023-03-11T16:20:22;8.60;1.00
33903;DHT22;20194;50.950;5.346;2023-03-11T16:22:50;8.30;1.00
33903;DHT22;20194;50.950;5.346;2023-03-11T16:25:24;8.20;1.00
33903;DHT22;20194;50.950;5.346;2023-03-11T16:27:53;8.20;99.90
33903;DHT22;20194;50.950;5.346;2023-03-11T16:30:20;8.20;90.50
33903;DHT22;20194;50.950;5.346;2023-03-11T16:32:47;8.20;99.90
33903;DHT22;20194;50.950;5.346;2023-03-11T16:35:13;8.10;99.90
33903;DHT22;20194;50.950;5.346;2023-03-11T16:37:39;8.10;99.90
33903;DHT22;20194;50.950;5.346;2023-03-11T16:40:11;8.30;1.00
33903;DHT22;20194;50.950;5.346;2023-03-11T16:42:37;8.50;99.90
33903;DHT22;20194;50.950;5.346;2023-03-11T16:45:03;8.40;1.00
33903;DHT22;20194;50.950;5.346;2023-03-11T16:47:29;8.30;99.90
33903;DHT22;20194;50.950;5.346;2023-03-11T16:49:54;8.50;1.00
33903;DHT22;20194;50.950;5.346;2023-03-11T16:52:21;8.40;99.90
33903;DHT22;20194;50.950;5.346;2023-03-11T16:54:48;8.50;99.90
33903;DHT22;20194;50.950;5.346;2023-03-11T16:57:14;8.60;1.00
33903;DHT22;20194;50.950;5.346;2023-03-11T16:59:40;8.70;99.90
33903;DHT22;20194;50.950;5.346;2023-03-11T17:02:11;8.80;99.90
33903;DHT22;20194;50.950;5.346;2023-03-11T17:04:37;9.00;99.90
33903;DHT22;20194;50.950;5.346;2023-03-11T17:07:04;9.00;99.90
33903;DHT22;20194;50.950;5.346;2023-03-11T17:09:31;9.00;1.00
33903;DHT22;20194;50.950;5.346;2023-03-11T17:11:57;8.90;99.90
33903;DHT22;20194;50.950;5.346;2023-03-11T17:14:23;8.80;1.00
33903;DHT22;20194;50.950;5.346;2023-03-11T17:16:50;8.80;1.00
33903;DHT22;20194;50.950;5.346;2023-03-11T17:19:15;8.70;1.00
33903;DHT22;20194;50.950;5.346;2023-03-11T17:21:41;8.70;61.60
33903;DHT22;20194;50.950;5.346;2023-03-11T17:24:08;8.80;99.90
33903;DHT22;20194;50.950;5.346;2023-03-11T17:26:35;8.80;69.00
33903;DHT22;20194;50.950;5.346;2023-03-11T17:29:01;8.90;99.90
33903;DHT22;20194;50.950;5.346;2023-03-11T17:31:26;8.70;1.00
33903;DHT22;20194;50.950;5.346;2023-03-11T17:33:52;8.70;43.50
33903;DHT22;20194;50.950;5.346;2023-03-11T17:36:18;8.70;99.90
33903;DHT22;20194;50.950;5.346;2023-03-11T17:38:45;8.70;99.90
33903;DHT22;20194;50.950;5.346;2023-03-11T17:41:14;8.70;99.90
33903;DHT22;20194;50.950;5.346;2023-03-11T17:43:41;8.70;1.00
33903;DHT22;20194;50.950;5.346;2023-03-11T17:46:08;8.80;1.00